Time;durP1;ratioP1;P1;durP2;ratioP2;P2;SDS_P1;SDS_P2;PMS_P1;PMS_P2;Temp;Humidity;BMP_temperature;BMP_pressure;BME280_temperature;BME280_humidity;BME280_pressure;Samples;Min_cycle;Max_cycle;Signal;HPM_P1;HPM_P2
2021/06/05 05:01:19;;;;;;;2.65;1.90;;;;;;;21.06;61.15;95423.47;5535273;23;19924;-70
2021/06/05 05:03:44;;;;;;;2.65;2.08;;;;;;;21.25;60.30;95419.78;4855590;29;20037;-71
2021/06/05 05:06:10;;;;;;;4.30;1.85;;;;;;;21.43;58.38;95424.97;4873800;29;20430;-68
2021/06/05 05:08:36;;;;;;;2.20;1.85;;;;;;;21.52;59.07;95431.53;4873036;29;20025;-70
2021/06/05 05:11:01;;;;;;;2.25;1.75;;;;;;;21.72;57.78;95428.56;4877556;29;20410;-71
2021/06/05 05:13:33;;;;;;;2.42;1.75;;;;;;;22.27;58.00;95418.50;4874695;29;20120;-69
2021/06/05 05:15:59;;;;;;;6.88;1.95;;;;;;;22.52;56.97;95416.41;4860469;29;20037;-70
2021/06/05 05:18:24;;;;;;;7.93;1.65;;;;;;;22.67;56.13;95413.28;4860049;29;20036;-68
2021/06/05 05:20:50;;;;;;;2.60;1.92;;;;;;;22.63;56.33;95412.13;4875375;29;20021;-69
2021/06/05 05:23:16;;;;;;;3.10;2.30;;;;;;;22.42;53.26;95413.53;4860260;29;20037;-71
2021/06/05 05:25:42;;;;;;;1.52;1.42;;;;;;;20.44;56.77;95406.22;4859416;29;20056;-69
2021/06/05 05:28:07;;;;;;;7.32;2.00;;;;;;;20.02;60.16;95399.97;4860481;29;20027;-70
2021/06/05 05:30:39;;;;;;;3.22;2.13;;;;;;;21.31;58.65;95395.16;4874340;29;20033;-70
2021/06/05 05:33:04;;;;;;;2.05;1.73;;;;;;;22.05;54.94;95394.56;4875925;29;20040;-70
2021/06/05 05:35:31;;;;;;;2.20;1.90;;;;;;;22.03;53.78;95393.97;4859888;29;20681;-69
2021/06/05 05:37:56;;;;;;;2.30;1.80;;;;;;;23.04;52.98;95393.41;4859682;29;20047;-69
2021/06/05 05:40:23;;;;;;;1.67;1.40;;;;;;;23.63;52.56;95397.31;4875529;29;20029;-70
2021/06/05 05:42:48;;;;;;;1.83;1.70;;;;;;;24.05;51.54;95391.59;4858626;29;20407;-71
2021/06/05 05:45:14;;;;;;;3.00;1.60;;;;;;;24.16;49.98;95397.88;4876773;29;20025;-69
2021/06/05 05:47:40;;;;;;;1.63;1.52;;;;;;;24.55;49.54;95388.84;4858351;29;20108;-69
2021/06/05 05:50:07;;;;;;;6.70;5.32;;;;;;;24.23;49.68;95388.72;4876651;29;20068;-69
2021/06/05 05:52:33;;;;;;;3.40;3.10;;;;;;;24.04;50.47;95390.81;4874046;29;20124;-70
2021/06/05 05:54:58;;;;;;;2.25;2.05;;;;;;;24.71;49.90;95389.84;4859598;29;20463;-69
2021/06/05 05:57:24;;;;;;;3.10;1.80;;;;;;;25.29;49.41;95391.78;4859657;29;20033;-70
2021/06/05 05:59:49;;;;;;;2.30;2.10;;;;;;;25.48;48.10;95390.38;4858867;29;20036;-67
2021/06/05 06:02:15;;;;;;;2.10;1.90;;;;;;;25.58;47.74;95390.50;4876205;29;20053;-67
2021/06/05 06:04:41;;;;;;;1.80;1.70;;;;;;;25.59;47.01;95397.41;4875142;29;20029;-67
2021/06/05 06:07:06;;;;;;;1.65;1.55;;;;;;;26.05;45.71;95391.38;4875516;29;20037;-66
2021/06/05 06:09:32;;;;;;;1.65;1.35;;;;;;;26.09;45.51;95386.34;4875208;29;20025;-68
2021/06/05 06:11:57;;;;;;;3.35;2.22;;;;;;;25.93;45.90;95392.59;4876503;29;20111;-69
2021/06/05 06:14:23;;;;;;;7.80;4.88;;;;;;;25.77;45.62;95393.56;4874150;29;20570;-68
2021/06/05 06:16:49;;;;;;;1.60;1.50;;;;;;;25.93;44.31;95389.97;4858568;29;20448;-70
2021/06/05 06:19:14;;;;;;;1.75;1.30;;;;;;;25.57;47.22;95389.69;4871683;29;20064;-65
2021/06/05 06:21:41;;;;;;;3.42;1.52;;;;;;;25.81;46.78;95392.81;4857006;29;20041;-68
2021/06/05 06:24:07;;;;;;;3.80;1.85;;;;;;;25.63;46.58;95386.03;4871412;29;20029;-66
2021/06/05 06:26:33;;;;;;;5.60;2.20;;;;;;;25.69;46.74;95387.66;4847875;29;20047;-68
2021/06/05 06:29:07;;;;;;;3.45;2.20;;;;;;;25.50;47.30;95380.31;4858120;29;20037;-68
2021/06/05 06:31:33;;;;;;;3.33;2.33;;;;;;;24.29;50.39;95379.78;4844761;29;20048;-67
2021/06/05 06:33:58;;;;;;;2.10;2.00;;;;;;;24.99;50.97;95376.38;4843771;29;20427;-66
2021/06/05 06:36:24;;;;;;;4.43;4.00;;;;;;;24.86;48.47;95371.47;4859424;29;20033;-67
2021/06/05 06:38:49;;;;;;;2.60;2.40;;;;;;;24.60;48.95;95370.34;4842376;29;20025;-69
2021/06/05 06:41:18;;;;;;;2.53;2.33;;;;;;;25.18;49.21;95372.31;4876106;29;20093;-68
2021/06/05 06:43:43;;;;;;;2.10;1.97;;;;;;;25.63;47.65;95374.59;4857322;29;20039;-66
2021/06/05 06:46:17;;;;;;;2.42;2.22;;;;;;;24.95;49.30;95368.13;4875861;29;20399;-69
2021/06/05 06:48:43;;;;;;;2.30;2.10;;;;;;;25.62;50.02;95375.69;4857829;29;20037;-64
2021/06/05 06:51:09;;;;;;;2.35;1.85;;;;;;;26.07;46.75;95368.00;4858932;29;20037;-67
2021/06/05 06:53:36;;;;;;;1.92;1.83;;;;;;;26.05;47.83;95370.13;4861478;29;20036;-66
2021/06/05 06:56:04;;;;;;;3.15;2.58;;;;;;;26.58;46.74;95373.59;4855059;29;20112;-65
2021/06/05 06:58:29;;;;;;;8.15;5.88;;;;;;;26.41;47.00;95373.78;4871462;29;20514;-68
2021/06/05 07:00:55;;;;;;;2.28;2.08;;;;;;;27.87;45.04;95367.19;4874038;29;20112;-66
2021/06/05 07:03:20;;;;;;;6.65;1.92;;;;;;;28.99;40.38;95365.78;4874229;29;20025;-69
2021/06/05 07:05:46;;;;;;;4.32;3.92;;;;;;;35.71;31.76;95360.25;4854841;29;20048;-64
2021/06/05 07:08:34;;;;;;;2.88;2.67;;;;;;;45.67;20.97;95364.13;4856545;29;20112;-65
2021/06/05 07:11:02;;;;;;;2.13;1.98;;;;;;;47.82;18.57;95373.59;4871991;29;20464;-68
2021/06/05 07:13:28;;;;;;;2.30;2.10;;;;;;;46.44;18.99;95368.28;4849723;29;20410;-64
2021/06/05 07:15:54;;;;;;;3.58;2.10;;;;;;;49.70;16.86;95373.75;4865981;29;20036;-67
2021/06/05 07:18:20;;;;;;;2.20;2.00;;;;;;;50.47;16.43;95371.91;4848874;29;20053;-63
2021/06/05 07:20:48;;;;;;;2.35;2.15;;;;;;;51.29;15.81;95370.53;4840828;29;20518;-64
2021/06/05 07:23:14;;;;;;;24.42;2.65;;;;;;;53.85;14.32;95373.25;4870475;29;20038;-68
2021/06/05 07:25:39;;;;;;;2.60;2.08;;;;;;;53.36;14.30;95364.31;4869684;29;20498;-65
2021/06/05 07:28:12;;;;;;;2.50;2.30;;;;;;;49.80;15.21;95353.53;4854325;29;20041;-64
2021/06/05 07:30:39;;;;;;;4.45;2.83;;;;;;;40.93;22.09;95346.56;4867246;29;20708;-67
2021/06/05 07:33:05;;;;;;;4.35;2.90;;;;;;;33.55;31.39;95346.38;4871366;29;20036;-66
2021/06/05 07:35:30;;;;;;;6.20;2.97;;;;;;;30.37;36.30;95345.69;4838409;29;20507;-64
2021/06/05 07:37:56;;;;;;;2.92;2.60;;;;;;;28.34;39.66;95338.31;4858433;29;20487;-66
2021/06/05 07:40:21;;;;;;;3.60;3.10;;;;;;;27.92;41.91;95335.22;4872151;29;20033;-64
2021/06/05 07:42:47;;;;;;;3.55;2.90;;;;;;;27.53;41.87;95332.31;4872187;29;20089;-67
2021/06/05 07:45:12;;;;;;;4.15;3.17;;;;;;;27.05;42.16;95333.59;4856471;29;20051;-68
2021/06/05 07:47:38;;;;;;;2.85;2.65;;;;;;;27.30;43.60;95335.47;4872263;29;20024;-67
2021/06/05 07:50:08;;;;;;;3.42;3.13;;;;;;;26.62;43.77;95340.09;4856734;29;20024;-67
2021/06/05 07:52:33;;;;;;;5.82;3.42;;;;;;;26.34;44.97;95335.22;4855567;29;20411;-64
2021/06/05 07:54:59;;;;;;;5.00;3.25;;;;;;;26.53;45.34;95331.84;4855831;29;20029;-67
2021/06/05 07:57:24;;;;;;;3.72;2.97;;;;;;;27.05;43.33;95330.94;4871469;29;20041;-66
2021/06/05 07:59:50;;;;;;;3.25;2.95;;;;;;;27.41;43.53;95331.78;4856265;29;20029;-65
2021/06/05 08:02:17;;;;;;;3.42;3.13;;;;;;;27.61;42.03;95329.13;4849462;29;20114;-67
2021/06/05 08:04:42;;;;;;;4.28;3.35;;;;;;;27.01;42.70;95335.19;4852704;29;20563;-63
2021/06/05 08:07:08;;;;;;;3.65;3.30;;;;;;;26.61;44.03;95334.00;4837819;29;20037;-64
2021/06/05 08:09:34;;;;;;;3.60;3.17;;;;;;;26.57;43.78;95329.47;4839675;29;20025;-67
2021/06/05 08:11:59;;;;;;;3.45;3.15;;;;;;;26.55;45.21;95337.69;4872389;29;20113;-67
2021/06/05 08:14:25;;;;;;;4.47;3.33;;;;;;;26.66;44.80;95336.69;4852666;29;20025;-66
2021/06/05 08:16:51;;;;;;;3.97;2.88;;;;;;;25.75;47.28;95331.97;4871067;29;20029;-66
2021/06/05 08:19:16;;;;;;;10.95;3.08;;;;;;;25.37;46.04;95331.13;4836612;29;20041;-65
2021/06/05 08:21:43;;;;;;;2.40;2.20;;;;;;;26.10;47.31;95329.53;4871914;29;20029;-66
2021/06/05 08:24:09;;;;;;;2.67;2.38;;;;;;;26.44;46.89;95325.44;4869523;29;20085;-64
2021/06/05 08:26:35;;;;;;;2.30;2.10;;;;;;;26.28;43.71;95320.31;4853713;29;20065;-63
2021/06/05 08:29:00;;;;;;;2.80;2.53;;;;;;;26.15;44.31;95316.25;4855192;29;20029;-66
2021/06/05 08:31:26;;;;;;;4.22;2.38;;;;;;;27.09;45.17;95321.38;4868462;29;20041;-65
2021/06/05 08:33:51;;;;;;;2.17;1.90;;;;;;;27.52;43.91;95320.88;4853246;29;20033;-65
2021/06/05 08:36:17;;;;;;;2.30;1.35;;;;;;;26.41;42.06;95311.88;4872516;29;20460;-65
2021/06/05 08:38:43;;;;;;;2.47;1.98;;;;;;;25.61;44.50;95308.53;4838798;29;20029;-65
2021/06/05 08:41:17;;;;;;;3.40;2.20;;;;;;;25.73;45.60;95312.81;4854720;29;20031;-65
2021/06/05 08:43:53;;;;;;;2.50;2.30;;;;;;;25.00;44.85;95309.88;4871900;29;20100;-61
2021/06/05 08:46:26;;;;;;;3.20;2.00;;;;;;;25.19;45.86;95302.34;4874799;29;20029;-64
2021/06/05 08:48:52;;;;;;;2.00;1.90;;;;;;;24.77;46.28;95302.19;4858066;29;20117;-63
2021/06/05 08:51:45;;;;;;;1.80;1.70;;;;;;;25.27;43.63;95301.84;4875570;29;20458;-64
2021/06/05 08:54:33;;;;;;;2.90;1.73;;;;;;;23.99;44.68;95302.56;4878970;29;20037;-63
2021/06/05 08:57:04;;;;;;;1.65;1.55;;;;;;;25.42;43.09;95290.56;4873855;29;21426;-64
2021/06/05 08:59:29;;;;;;;1.67;1.30;;;;;;;25.90;40.77;95286.91;4859524;29;20049;-62
2021/06/05 09:01:55;;;;;;;1.67;1.20;;;;;;;26.11;40.28;95291.25;4858243;29;20113;-61
2021/06/05 09:04:22;;;;;;;2.97;1.45;;;;;;;26.57;41.76;95285.09;4859437;29;20041;-65
2021/06/05 09:07:00;;;;;;;1.30;1.23;;;;;;;26.95;41.40;95281.19;4842035;29;20036;-64
2021/06/05 09:09:31;;;;;;;2.00;1.70;;;;;;;26.84;36.05;95279.59;4858345;29;20439;-62
2021/06/05 09:11:58;;;;;;;1.40;1.30;;;;;;;26.05;40.44;95274.50;4858664;29;20045;-62
2021/06/05 09:14:24;;;;;;;2.22;1.88;;;;;;;26.45;41.28;95268.59;4870946;29;21196;-62
2021/06/05 09:16:50;;;;;;;4.65;1.48;;;;;;;26.38;39.18;95261.91;4875765;29;20029;-64
2021/06/05 09:19:22;;;;;;;1.50;1.40;;;;;;;25.69;38.05;95267.41;4857868;29;20045;-62
2021/06/05 09:21:52;;;;;;;3.78;1.58;;;;;;;25.98;40.26;95267.81;4875841;29;20032;-62
2021/06/05 09:24:27;;;;;;;1.33;1.23;;;;;;;26.46;38.62;95261.38;4873674;29;20442;-62
2021/06/05 09:27:17;;;;;;;1.40;1.30;;;;;;;26.70;37.41;95254.53;4874910;29;20037;-63
2021/06/05 09:30:00;;;;;;;1.40;1.30;;;;;;;26.31;39.33;95254.19;4875504;29;20053;-65
2021/06/05 09:32:34;;;;;;;1.70;1.20;;;;;;;26.03;40.87;95260.69;4872916;29;20056;-64
2021/06/05 09:35:08;;;;;;;1.60;1.50;;;;;;;24.97;41.02;95253.88;4873896;29;20025;-63
2021/06/05 09:37:52;;;;;;;1.20;1.10;;;;;;;26.01;39.99;95248.72;4873810;29;20025;-64
2021/06/05 09:40:24;;;;;;;1.50;1.40;;;;;;;26.16;39.12;95244.31;4873059;29;20414;-61
2021/06/05 09:42:58;;;;;;;3.67;1.33;;;;;;;27.32;39.38;95235.72;4875244;29;20033;-64
2021/06/05 09:45:26;;;;;;;1.50;1.40;;;;;;;26.75;36.85;95235.16;4857310;29;20044;-65
2021/06/05 09:47:52;;;;;;;2.58;1.40;;;;;;;26.72;34.06;95228.47;4874818;29;20676;-64
2021/06/05 09:50:25;;;;;;;1.60;1.50;;;;;;;26.14;37.12;95229.66;4857917;29;20029;-66
2021/06/05 09:52:51;;;;;;;1.60;1.50;;;;;;;25.73;36.74;95234.00;4872242;29;20411;-65
2021/06/05 09:55:17;;;;;;;1.50;1.30;;;;;;;25.53;36.32;95225.91;4849341;29;20040;-66
2021/06/05 09:57:44;;;;;;;1.30;1.20;;;;;;;26.07;37.83;95216.59;4855317;29;20038;-62
2021/06/05 10:00:10;;;;;;;1.30;1.20;;;;;;;26.34;38.54;95227.09;4855388;29;20463;-63
2021/06/05 10:02:37;;;;;;;1.45;1.20;;;;;;;25.59;37.16;95219.59;4855867;29;20058;-61
2021/06/05 10:05:10;;;;;;;1.52;1.20;;;;;;;25.76;40.75;95219.41;4855273;29;20037;-65
2021/06/05 10:07:36;;;;;;;2.10;1.40;;;;;;;24.41;38.29;95210.13;4855854;29;20041;-64
2021/06/05 10:10:12;;;;;;;1.45;1.30;;;;;;;24.64;38.64;95220.44;4863089;29;20031;-63
2021/06/05 10:12:39;;;;;;;1.48;1.17;;;;;;;24.91;34.62;95210.63;4843481;29;20040;-63
2021/06/05 10:15:11;;;;;;;3.35;1.35;;;;;;;24.88;37.48;95203.19;4867464;29;20519;-62
2021/06/05 10:17:57;;;;;;;1.40;1.25;;;;;;;24.75;37.15;95203.59;4841226;29;20029;-62
2021/06/05 10:20:51;;;;;;;1.27;1.15;;;;;;;25.01;37.51;95204.63;4842442;29;20036;-64
2021/06/05 10:23:34;;;;;;;1.20;1.10;;;;;;;25.26;38.95;95201.31;4849869;29;20047;-65
2021/06/05 10:26:01;;;;;;;0.80;0.80;;;;;;;25.92;35.75;95197.16;4843253;29;20033;-61
2021/06/05 10:28:36;;;;;;;1.15;1.05;;;;;;;26.25;34.23;95188.00;4841302;29;20491;-64
2021/06/05 10:31:07;;;;;;;1.35;1.05;;;;;;;24.02;35.73;95197.00;4842756;29;20051;-63
2021/06/05 10:33:44;;;;;;;1.30;1.20;;;;;;;24.83;35.04;95194.38;4842436;29;20037;-65
2021/06/05 10:36:41;;;;;;;2.38;0.90;;;;;;;25.27;34.25;95194.97;4841657;29;20138;-64
2021/06/05 10:39:09;;;;;;;0.98;0.98;;;;;;;26.24;34.66;95184.56;4843916;29;20514;-65
2021/06/05 10:41:49;;;;;;;1.40;1.30;;;;;;;25.85;34.01;95188.66;4873495;29;20075;-66
2021/06/05 10:44:15;;;;;;;1.70;1.25;;;;;;;25.50;33.69;95186.63;4857717;29;20116;-64
2021/06/05 10:46:51;;;;;;;2.03;1.23;;;;;;;25.81;33.96;95185.72;4856987;29;20032;-62
2021/06/05 10:49:26;;;;;;;2.97;1.42;;;;;;;26.58;36.06;95188.34;4856712;29;20447;-64
2021/06/05 10:52:41;;;;;;;1.63;0.93;;;;;;;26.51;34.53;95181.69;4843009;29;20491;-66
2021/06/05 10:55:13;;;;;;;5.85;1.30;;;;;;;25.90;35.80;95172.75;4866207;29;20076;-65
2021/06/05 10:57:40;;;;;;;3.10;1.42;;;;;;;26.26;33.71;95171.81;4870725;29;20037;-65
2021/06/05 11:00:09;;;;;;;1.30;1.20;;;;;;;25.23;33.66;95175.31;4871575;29;20041;-62
2021/06/05 11:02:39;;;;;;;1.13;1.13;;;;;;;24.47;35.82;95162.25;4871228;29;20171;-61
2021/06/05 11:05:34;;;;;;;2.03;1.13;;;;;;;24.64;37.04;95156.84;4857219;29;20043;-65
2021/06/05 11:08:12;;;;;;;1.52;1.20;;;;;;;24.93;36.59;95167.97;4868973;29;20036;-65
2021/06/05 11:10:47;;;;;;;4.38;1.30;;;;;;;25.38;34.54;95167.44;4873163;29;20028;-62
2021/06/05 11:13:34;;;;;;;1.42;1.33;;;;;;;26.00;36.31;95162.16;4872783;29;20491;-65
2021/06/05 11:16:07;;;;;;;1.27;1.17;;;;;;;25.37;35.61;95163.97;4871640;29;20607;-62
2021/06/05 11:18:36;;;;;;;4.70;1.50;;;;;;;25.34;37.46;95159.19;4871888;29;20080;-65
2021/06/05 11:21:23;;;;;;;1.77;1.33;;;;;;;25.56;35.62;95154.56;4872118;29;20029;-64
2021/06/05 11:23:58;;;;;;;1.33;1.23;;;;;;;25.91;35.95;95145.91;4872514;29;20111;-64
2021/06/05 11:26:35;;;;;;;1.50;1.17;;;;;;;26.14;37.56;95145.44;4873713;29;20037;-65
2021/06/05 11:29:21;;;;;;;6.57;1.27;;;;;;;25.28;36.66;95152.28;4872229;29;20029;-65
2021/06/05 11:31:52;;;;;;;1.83;1.00;;;;;;;25.16;35.40;95147.19;4864936;29;20503;-64
2021/06/05 11:34:33;;;;;;;4.35;1.77;;;;;;;25.18;36.99;95146.91;4872812;29;20056;-63
2021/06/05 11:37:18;;;;;;;1.00;0.90;;;;;;;25.42;34.31;95136.69;4872055;29;20040;-66
2021/06/05 11:39:58;;;;;;;1.50;1.40;;;;;;;25.30;35.65;95139.53;4863464;29;20503;-63
2021/06/05 11:42:23;;;;;;;3.33;1.40;;;;;;;25.80;35.07;95139.00;4856243;29;20040;-62
2021/06/05 11:44:58;;;;;;;3.83;1.38;;;;;;;26.05;35.85;95132.94;4873054;29;20416;-64
2021/06/05 11:47:24;;;;;;;1.23;1.13;;;;;;;26.30;35.68;95130.38;4872693;29;20040;-64
2021/06/05 11:49:52;;;;;;;2.97;1.17;;;;;;;25.89;36.67;95131.31;4872391;29;20028;-62
2021/06/05 11:52:31;;;;;;;1.63;1.10;;;;;;;26.35;34.74;95129.59;4873460;29;20048;-66
2021/06/05 11:54:58;;;;;;;1.17;1.08;;;;;;;26.55;36.78;95124.28;4872022;29;20101;-64
2021/06/05 11:57:30;;;;;;;1.40;1.30;;;;;;;26.32;34.77;95130.13;4871943;29;20040;-65
2021/06/05 11:59:58;;;;;;;2.08;1.00;;;;;;;26.80;35.65;95126.94;4871186;29;20048;-63
2021/06/05 12:02:28;;;;;;;4.60;1.40;;;;;;;25.99;35.50;95123.38;4872244;29;20071;-65
2021/06/05 12:05:05;;;;;;;4.03;1.52;;;;;;;25.50;35.34;95125.59;4872837;29;20037;-63
2021/06/05 12:07:38;;;;;;;1.40;1.30;;;;;;;25.97;34.50;95112.22;4870368;29;20035;-65
2021/06/05 12:10:05;;;;;;;1.80;1.33;;;;;;;26.33;36.71;95116.53;4872126;29;20058;-62
2021/06/05 12:12:42;;;;;;;1.35;1.25;;;;;;;26.11;35.06;95108.78;4872508;29;20591;-63
2021/06/05 12:15:09;;;;;;;2.55;1.55;;;;;;;26.22;36.20;95112.31;4855879;29;20407;-66
2021/06/05 12:17:42;;;;;;;1.95;1.05;;;;;;;26.44;35.20;95112.03;4873100;29;20594;-65
2021/06/05 12:20:14;;;;;;;1.33;1.13;;;;;;;26.62;35.39;95111.50;4845599;29;20036;-64
2021/06/05 12:22:40;;;;;;;1.92;1.30;;;;;;;26.75;35.90;95102.22;4878663;29;20037;-62
2021/06/05 12:25:07;;;;;;;1.02;0.98;;;;;;;26.67;34.16;95099.03;4861273;29;20033;-65
2021/06/05 12:27:35;;;;;;;1.48;1.25;;;;;;;26.14;34.19;95096.84;4851723;29;20037;-66
2021/06/05 12:30:16;;;;;;;4.63;1.85;;;;;;;25.87;35.36;95093.63;4873484;29;20089;-65
2021/06/05 12:33:00;;;;;;;1.63;1.52;;;;;;;25.50;33.76;95088.47;4858385;29;20495;-62
2021/06/05 12:35:40;;;;;;;1.50;1.30;;;;;;;25.20;34.80;95089.13;4872378;29;20052;-62
2021/06/05 12:38:09;;;;;;;1.90;1.50;;;;;;;25.83;35.57;95093.34;4877806;29;20095;-65
2021/06/05 12:40:47;;;;;;;1.50;1.20;;;;;;;26.11;35.55;95094.72;4879052;29;20029;-61
2021/06/05 12:43:16;;;;;;;1.83;1.30;;;;;;;25.92;35.74;95083.81;4878225;29;20037;-65
2021/06/05 12:45:42;;;;;;;1.67;1.30;;;;;;;25.76;35.00;95084.03;4861352;29;20044;-61
2021/06/05 12:48:09;;;;;;;1.65;1.33;;;;;;;25.43;34.73;95083.34;4846546;29;20037;-65
2021/06/05 12:50:36;;;;;;;4.53;1.80;;;;;;;25.51;36.49;95082.91;4845201;29;20478;-65
2021/06/05 12:53:03;;;;;;;1.50;1.38;;;;;;;25.03;34.83;95091.94;4862348;29;20029;-61
2021/06/05 12:55:44;;;;;;;3.97;1.20;;;;;;;25.41;35.11;95072.22;4855213;29;20040;-63
2021/06/05 12:58:11;;;;;;;3.35;1.60;;;;;;;25.87;34.99;95075.03;4861957;29;20029;-63
2021/06/05 13:00:46;;;;;;;1.42;1.33;;;;;;;26.04;33.99;95076.38;4861371;29;20084;-64
2021/06/05 13:03:12;;;;;;;1.20;1.05;;;;;;;25.88;35.20;95074.00;4877923;29;20128;-64
2021/06/05 13:05:41;;;;;;;1.55;1.45;;;;;;;25.84;36.28;95079.03;4879020;29;20471;-66
2021/06/05 13:08:12;;;;;;;1.25;1.20;;;;;;;25.22;35.43;95071.09;4861044;29;21013;-66
2021/06/05 13:10:48;;;;;;;1.50;1.40;;;;;;;25.65;36.43;95068.06;4862522;29;20043;-65
2021/06/05 13:13:18;;;;;;;1.25;1.15;;;;;;;25.28;34.55;95061.28;4861378;29;20088;-66
2021/06/05 13:16:15;;;;;;;1.05;0.95;;;;;;;25.73;35.75;95061.47;4861375;29;20032;-65
2021/06/05 13:18:43;;;;;;;3.75;1.50;;;;;;;24.80;37.01;95060.50;4874870;29;20044;-62
2021/06/05 13:21:22;;;;;;;2.05;1.30;;;;;;;24.05;37.13;95058.03;4844896;29;20383;-66
2021/06/05 13:23:51;;;;;;;1.52;1.20;;;;;;;24.63;36.38;95055.34;4857429;29;20064;-67
2021/06/05 13:26:35;;;;;;;1.52;1.42;;;;;;;25.15;36.15;95044.81;4850216;29;20045;-66
2021/06/05 13:29:36;;;;;;;1.95;1.73;;;;;;;25.44;36.04;95045.16;4874366;29;20044;-67
2021/06/05 13:32:03;;;;;;;1.58;1.35;;;;;;;25.54;36.43;95037.28;4855868;29;20041;-69
2021/06/05 13:34:32;;;;;;;1.73;1.55;;;;;;;25.62;35.01;95035.97;4867650;29;20068;-65
2021/06/05 13:37:35;;;;;;;2.65;1.40;;;;;;;25.40;35.51;95038.78;4860313;29;20475;-68
2021/06/05 13:40:06;;;;;;;2.47;1.55;;;;;;;25.56;35.06;95035.16;4835411;29;20037;-69
2021/06/05 13:42:35;;;;;;;1.77;1.67;;;;;;;25.97;35.29;95030.72;4873814;29;20483;-66
2021/06/05 13:45:00;;;;;;;1.50;1.40;;;;;;;25.87;35.41;95030.72;4842536;29;20035;-68
2021/06/05 13:47:26;;;;;;;2.83;1.50;;;;;;;25.68;35.29;95033.06;4841538;29;20028;-66
2021/06/05 13:49:51;;;;;;;1.60;1.50;;;;;;;25.63;35.76;95025.09;4858582;29;20033;-68
2021/06/05 13:52:28;;;;;;;4.00;1.50;;;;;;;25.47;35.44;95022.63;4872861;29;20039;-62
2021/06/05 13:55:29;;;;;;;1.48;1.38;;;;;;;25.75;36.16;95030.13;4874886;29;20064;-65
2021/06/05 13:57:55;;;;;;;1.73;1.63;;;;;;;24.96;35.40;95019.78;4873594;29;20049;-65
2021/06/05 14:00:21;;;;;;;1.67;1.40;;;;;;;25.23;36.04;95014.34;4841946;29;20036;-69
2021/06/05 14:02:47;;;;;;;1.40;1.30;;;;;;;25.22;35.92;95015.38;4858359;29;20077;-68
2021/06/05 14:05:12;;;;;;;1.48;1.33;;;;;;;25.32;35.51;95004.00;4857594;29;20040;-66
2021/06/05 14:07:38;;;;;;;2.35;1.77;;;;;;;25.47;36.66;95010.16;4857967;29;20056;-67
2021/06/05 14:10:04;;;;;;;1.40;1.30;;;;;;;25.81;36.42;95007.06;4874703;29;20033;-68
2021/06/05 14:12:30;;;;;;;2.05;1.50;;;;;;;25.56;35.03;95007.81;4842017;29;20037;-68
2021/06/05 14:14:57;;;;;;;3.50;1.70;;;;;;;25.15;34.75;95002.38;4858864;29;20367;-66
2021/06/05 14:17:22;;;;;;;1.90;1.80;;;;;;;25.13;35.41;95001.03;4856826;29;20033;-67
2021/06/05 14:19:48;;;;;;;1.60;1.50;;;;;;;25.25;35.94;94998.97;4858212;29;20040;-67
2021/06/05 14:22:14;;;;;;;1.60;1.50;;;;;;;25.41;35.52;94997.94;4857375;29;20116;-67
2021/06/05 14:24:40;;;;;;;1.80;1.40;;;;;;;25.13;36.00;95001.03;4858316;29;20025;-67
2021/06/05 14:27:05;;;;;;;2.13;1.60;;;;;;;25.07;35.73;94996.78;4872734;29;20045;-66
2021/06/05 14:29:31;;;;;;;2.83;1.25;;;;;;;25.18;36.58;94993.91;4872734;29;20547;-65
2021/06/05 14:31:58;;;;;;;2.00;1.33;;;;;;;24.96;35.42;94990.63;4873415;29;20048;-68
2021/06/05 14:34:23;;;;;;;1.70;1.58;;;;;;;25.04;37.22;94994.66;4856845;29;20068;-64
2021/06/05 14:36:49;;;;;;;1.70;1.60;;;;;;;24.52;36.07;94970.78;4874760;29;20091;-68
2021/06/05 14:39:14;;;;;;;1.67;1.58;;;;;;;24.62;35.80;94984.09;4872023;29;20029;-64
2021/06/05 14:42:16;;;;;;;3.05;1.38;;;;;;;24.73;35.62;94990.22;4872101;29;20486;-67
2021/06/05 14:44:41;;;;;;;4.30;1.52;;;;;;;25.09;35.86;94970.78;4853542;29;20540;-67
2021/06/05 14:47:07;;;;;;;1.58;1.48;;;;;;;25.23;33.83;94974.56;4855712;29;20041;-66
2021/06/05 14:49:32;;;;;;;4.43;1.75;;;;;;;24.98;36.13;94974.47;4874658;29;20483;-64
2021/06/05 14:51:59;;;;;;;1.73;1.63;;;;;;;24.59;36.82;94974.78;4854679;29;20419;-68
2021/06/05 14:54:24;;;;;;;2.42;1.90;;;;;;;24.23;38.75;94974.84;4838827;29;20030;-68
2021/06/05 14:56:50;;;;;;;1.58;1.35;;;;;;;24.23;35.26;94959.75;4854800;29;20033;-68
2021/06/05 14:59:15;;;;;;;2.15;1.92;;;;;;;24.24;37.15;94963.19;4854031;29;20037;-68
2021/06/05 15:01:41;;;;;;;1.75;1.60;;;;;;;24.07;36.81;94958.81;4856972;29;20400;-68
2021/06/05 15:04:07;;;;;;;3.15;1.65;;;;;;;24.07;35.62;94956.19;4856456;29;20514;-68
2021/06/05 15:06:32;;;;;;;2.05;1.83;;;;;;;23.77;39.00;94949.84;4857415;29;20044;-67
2021/06/05 15:08:58;;;;;;;1.40;1.30;;;;;;;23.63;38.49;94959.25;4861930;29;20032;-67
2021/06/05 15:11:24;;;;;;;2.28;1.38;;;;;;;23.60;40.03;94944.66;4873796;29;20040;-67
2021/06/05 15:13:49;;;;;;;1.95;1.83;;;;;;;23.89;39.22;94945.97;4871661;29;20029;-66
2021/06/05 15:16:15;;;;;;;3.03;1.80;;;;;;;24.01;36.90;94941.31;4848208;29;20044;-67
2021/06/05 15:18:41;;;;;;;5.45;1.88;;;;;;;24.16;36.03;94943.28;4856406;29;20411;-68
2021/06/05 15:21:07;;;;;;;5.43;2.00;;;;;;;24.26;37.02;94918.72;4856392;29;20044;-67
2021/06/05 15:23:32;;;;;;;1.55;1.42;;;;;;;23.99;34.57;94939.94;4868511;29;20729;-67
2021/06/05 15:25:57;;;;;;;4.47;4.07;;;;;;;23.72;40.60;94937.38;4871028;29;20574;-67
2021/06/05 15:28:23;;;;;;;3.35;1.90;;;;;;;23.71;37.54;94933.13;4873038;29;20610;-67
2021/06/05 15:30:49;;;;;;;1.75;1.52;;;;;;;23.82;37.52;94928.72;4855355;29;20034;-65
2021/06/05 15:33:16;;;;;;;1.50;1.40;;;;;;;24.05;39.36;94928.34;4870453;29;20037;-65
2021/06/05 15:35:42;;;;;;;1.83;1.67;;;;;;;24.11;40.36;94930.81;4870816;29;20491;-65
2021/06/05 15:38:07;;;;;;;8.88;1.48;;;;;;;24.11;40.92;94925.50;4870151;29;20638;-65
2021/06/05 15:40:33;;;;;;;2.10;1.67;;;;;;;24.05;41.14;94928.34;4855253;29;20032;-64
2021/06/05 15:42:59;;;;;;;2.30;1.40;;;;;;;23.98;43.38;94925.16;4871690;29;20029;-65
2021/06/05 15:45:28;;;;;;;3.28;1.60;;;;;;;23.91;44.13;94927.19;4871095;29;20582;-63
2021/06/05 15:47:55;;;;;;;1.75;1.35;;;;;;;23.89;44.22;94921.38;4869391;29;20427;-64
2021/06/05 15:50:21;;;;;;;1.48;1.38;;;;;;;23.73;44.19;94917.03;4870799;29;20036;-63
2021/06/05 15:52:46;;;;;;;1.58;1.48;;;;;;;23.70;43.79;94928.09;4855076;29;20029;-64
2021/06/05 15:55:12;;;;;;;1.90;1.70;;;;;;;23.68;44.49;94932.84;4872944;29;20753;-66
2021/06/05 15:57:38;;;;;;;1.35;1.25;;;;;;;23.73;46.39;94931.03;4855331;29;20055;-64
2021/06/05 16:00:05;;;;;;;1.65;1.55;;;;;;;23.68;46.14;94924.91;4871356;29;20423;-66
2021/06/05 16:02:31;;;;;;;1.63;1.52;;;;;;;23.63;47.82;94923.81;4871535;29;20064;-66
2021/06/05 16:04:56;;;;;;;1.52;1.38;;;;;;;23.57;46.76;94921.38;4872340;29;20033;-65
2021/06/05 16:07:22;;;;;;;2.22;1.73;;;;;;;23.49;45.46;94914.72;4856707;29;20033;-64
2021/06/05 16:09:47;;;;;;;4.32;1.58;;;;;;;23.43;46.23;94918.38;4855014;29;20467;-64
2021/06/05 16:12:13;;;;;;;2.63;1.80;;;;;;;23.39;46.63;94917.22;4856287;29;20025;-66
2021/06/05 16:14:38;;;;;;;1.40;1.30;;;;;;;23.34;45.93;94919.81;4854630;29;20037;-64
2021/06/05 16:17:04;;;;;;;1.48;1.38;;;;;;;23.32;46.74;94921.13;4873535;29;20048;-66
2021/06/05 16:19:30;;;;;;;1.77;1.27;;;;;;;23.27;46.61;94921.88;4872796;29;20120;-65
2021/06/05 16:21:56;;;;;;;1.48;1.30;;;;;;;23.18;46.42;94915.47;4855631;29;20513;-66
2021/06/05 16:24:26;;;;;;;3.30;1.55;;;;;;;23.07;47.49;94916.38;4869123;29;20064;-65
2021/06/05 16:26:52;;;;;;;2.55;1.52;;;;;;;23.00;47.76;94924.50;4854432;29;20436;-66
2021/06/05 16:29:18;;;;;;;1.73;1.50;;;;;;;22.94;48.97;94920.22;4873278;29;20450;-63
2021/06/05 16:31:43;;;;;;;2.83;1.70;;;;;;;22.82;48.66;94924.03;4855343;29;20158;-66
2021/06/05 16:34:09;;;;;;;1.90;1.45;;;;;;;22.78;48.92;94923.75;4872743;29;20036;-66
2021/06/05 16:36:35;;;;;;;3.92;1.98;;;;;;;22.75;49.18;94921.59;4855553;29;20025;-65
2021/06/05 16:39:00;;;;;;;1.70;1.58;;;;;;;22.70;49.65;94921.50;4870868;29;20085;-65
2021/06/05 16:41:26;;;;;;;2.20;1.65;;;;;;;22.64;50.09;94919.03;4871685;29;20033;-65
2021/06/05 16:43:51;;;;;;;3.78;1.73;;;;;;;22.56;50.72;94915.78;4854193;29;20104;-65
2021/06/05 16:46:17;;;;;;;6.07;1.70;;;;;;;22.47;51.45;94925.19;4853388;29;20052;-64